Time;durP1;ratioP1;P1;durP2;ratioP2;P2;SDS_P1;SDS_P2;PMS_P1;PMS_P2;Temp;Humidity;BMP_temperature;BMP_pressure;BME280_temperature;BME280_humidity;BME280_pressure;Samples;Min_cycle;Max_cycle;Signal;HPM_P1;HPM_P2
2023/06/25 00:00:10;;;;;;;5.20;3.70;;;;;;;25.74;53.80;100590.78;5085505;28;20218;-61
2023/06/25 00:02:36;;;;;;;5.50;3.93;;;;;;;25.74;54.41;100590.78;5077192;28;20482;-60
2023/06/25 00:05:01;;;;;;;4.80;3.90;;;;;;;25.75;54.16;100592.44;5052226;28;20186;-61
2023/06/25 00:07:27;;;;;;;4.90;3.80;;;;;;;25.74;53.97;100593.69;5069993;28;20203;-61
2023/06/25 00:09:55;;;;;;;7.10;4.30;;;;;;;25.73;53.78;100592.00;5069700;28;20232;-61
2023/06/25 00:12:24;;;;;;;4.53;3.47;;;;;;;25.72;54.42;100579.63;5087405;28;20193;-60
2023/06/25 00:14:49;;;;;;;5.50;4.20;;;;;;;25.73;54.29;100583.31;5073363;28;20438;-60
2023/06/25 00:17:17;;;;;;;5.13;3.80;;;;;;;25.72;54.44;100579.63;5058550;28;20449;-61
2023/06/25 00:19:43;;;;;;;5.33;3.80;;;;;;;25.72;54.46;100587.47;5071450;28;20650;-61
2023/06/25 00:22:11;;;;;;;5.70;4.07;;;;;;;25.72;53.96;100578.78;5071658;28;20842;-60
2023/06/25 00:24:39;;;;;;;5.20;4.10;;;;;;;25.72;54.53;100578.78;5072184;28;20419;-60
2023/06/25 00:27:05;;;;;;;4.67;3.80;;;;;;;25.72;54.04;100581.69;5089926;28;20424;-60
2023/06/25 00:29:31;;;;;;;5.30;3.67;;;;;;;25.71;54.06;100569.31;5091708;28;20488;-60
2023/06/25 00:31:56;;;;;;;6.17;3.80;;;;;;;25.72;54.32;100575.91;5078601;28;20440;-61
2023/06/25 00:34:22;;;;;;;4.93;4.00;;;;;;;25.70;54.11;100567.66;5082568;28;20191;-60
2023/06/25 00:36:51;;;;;;;4.80;3.37;;;;;;;25.71;54.39;100566.41;5091857;28;20181;-61
2023/06/25 00:39:20;;;;;;;5.63;4.10;;;;;;;25.71;54.48;100565.59;5091230;28;20227;-60
2023/06/25 00:41:45;;;;;;;5.10;3.57;;;;;;;25.70;54.57;100558.97;5081072;28;20463;-60
2023/06/25 00:44:11;;;;;;;8.73;4.33;;;;;;;25.70;54.29;100558.16;5090787;28;20786;-60
2023/06/25 00:46:36;;;;;;;9.20;4.03;;;;;;;25.69;54.20;100559.41;5082271;28;20642;-60
2023/06/25 00:49:05;;;;;;;5.63;4.17;;;;;;;25.68;54.03;100564.38;5078172;28;20206;-61
2023/06/25 00:51:31;;;;;;;5.43;3.30;;;;;;;25.68;54.63;100558.59;5070306;28;20315;-61
2023/06/25 00:53:56;;;;;;;5.13;3.83;;;;;;;25.69;54.75;100556.53;5068286;28;20428;-60
2023/06/25 00:56:27;;;;;;;5.93;3.80;;;;;;;25.68;54.37;100547.00;5085899;28;20197;-60
2023/06/25 00:59:00;;;;;;;5.70;3.87;;;;;;;25.69;54.41;100556.53;5076858;28;20186;-60
2023/06/25 01:01:46;;;;;;;6.77;3.90;;;;;;;25.68;54.42;100564.38;5088794;28;20888;-60
2023/06/25 01:04:19;;;;;;;6.40;3.87;;;;;;;25.67;54.79;100550.31;5072662;28;20457;-60
2023/06/25 01:06:47;;;;;;;5.60;4.27;;;;;;;25.67;54.38;100556.94;5053998;28;20441;-60
2023/06/25 01:09:12;;;;;;;6.43;4.17;;;;;;;25.68;54.80;100549.06;5071015;28;20491;-60
2023/06/25 01:11:38;;;;;;;5.53;3.93;;;;;;;25.67;54.88;100544.53;5056554;28;20444;-60
2023/06/25 01:14:09;;;;;;;6.10;4.10;;;;;;;25.66;54.61;100543.72;5070945;28;20186;-60
2023/06/25 01:16:34;;;;;;;6.17;3.90;;;;;;;25.66;54.41;100546.63;5081454;28;20193;-61
2023/06/25 01:19:02;;;;;;;4.90;3.57;;;;;;;25.67;54.42;100533.81;5076264;28;20879;-60
2023/06/25 01:21:29;;;;;;;5.27;3.80;;;;;;;25.66;54.67;100534.22;5089304;28;20646;-60
2023/06/25 01:23:54;;;;;;;4.93;4.17;;;;;;;25.66;54.74;100537.13;5071312;28;20884;-61
2023/06/25 01:26:20;;;;;;;5.10;3.80;;;;;;;25.65;54.52;100542.06;5069206;28;20424;-60
2023/06/25 01:28:45;;;;;;;4.80;3.50;;;;;;;25.65;54.82;100527.59;5071614;28;20214;-61
2023/06/25 01:31:10;;;;;;;5.20;3.80;;;;;;;25.65;54.91;100529.69;5069749;28;20191;-60
2023/06/25 01:33:36;;;;;;;5.57;4.13;;;;;;;25.64;54.75;100525.97;5075013;28;20190;-61
2023/06/25 01:36:02;;;;;;;5.83;4.47;;;;;;;25.65;54.50;100532.59;5070041;28;20179;-61
2023/06/25 01:38:28;;;;;;;5.20;4.20;;;;;;;25.64;54.54;100525.97;5070295;28;20163;-60
2023/06/25 01:40:53;;;;;;;6.40;3.73;;;;;;;25.64;54.84;100528.84;5069999;28;20192;-60
2023/06/25 01:43:18;;;;;;;5.00;3.90;;;;;;;25.63;54.71;100530.09;5084264;28;20545;-61
2023/06/25 01:45:44;;;;;;;6.23;3.90;;;;;;;25.63;54.61;100521.44;5086384;28;20239;-60
2023/06/25 01:48:09;;;;;;;4.60;3.60;;;;;;;25.62;54.92;100522.69;5083846;28;20210;-61
2023/06/25 01:50:35;;;;;;;5.30;3.57;;;;;;;25.63;55.01;100527.22;5050845;28;20208;-60
2023/06/25 01:53:00;;;;;;;5.40;4.40;;;;;;;25.63;55.00;100524.31;5068717;28;20175;-60
2023/06/25 01:55:26;;;;;;;5.53;3.80;;;;;;;25.62;54.98;100522.69;5081646;28;20200;-60
2023/06/25 01:57:51;;;;;;;5.40;3.80;;;;;;;25.63;54.59;100520.59;5083978;28;21085;-61
2023/06/25 02:00:17;;;;;;;5.40;3.93;;;;;;;25.61;54.51;100518.16;5070276;28;20230;-60
2023/06/25 02:02:43;;;;;;;5.50;4.10;;;;;;;25.61;55.16;100523.09;5086177;28;20261;-61
2023/06/25 02:05:08;;;;;;;5.83;3.93;;;;;;;25.60;54.66;100522.28;5070292;28;20190;-60
2023/06/25 02:07:34;;;;;;;5.13;4.20;;;;;;;25.60;54.83;100519.41;5050514;28;21165;-60
2023/06/25 02:09:59;;;;;;;4.17;3.17;;;;;;;25.60;54.36;100522.28;5067798;28;20174;-60
2023/06/25 02:12:25;;;;;;;3.93;3.17;;;;;;;25.59;55.03;100520.63;5071448;28;20190;-60
2023/06/25 02:14:50;;;;;;;5.00;3.67;;;;;;;25.60;55.12;100507.84;5068700;28;20171;-60
2023/06/25 02:17:16;;;;;;;4.80;3.70;;;;;;;25.59;54.96;100508.25;5086036;28;20536;-61
2023/06/25 02:19:41;;;;;;;6.00;4.03;;;;;;;25.59;54.90;100508.25;5090007;28;20178;-60
2023/06/25 02:22:06;;;;;;;5.23;4.30;;;;;;;25.59;54.96;100496.69;5082307;28;20187;-60
2023/06/25 02:24:32;;;;;;;5.10;4.17;;;;;;;25.59;54.66;100499.59;5068143;28;20186;-60
2023/06/25 02:26:57;;;;;;;4.37;3.40;;;;;;;25.57;55.17;100508.69;5068259;28;20268;-60
2023/06/25 02:29:23;;;;;;;6.00;3.70;;;;;;;25.58;54.88;100504.53;5050178;28;20642;-60
2023/06/25 02:31:48;;;;;;;5.50;4.03;;;;;;;25.58;55.00;100512.41;5046504;28;20281;-60
2023/06/25 02:34:16;;;;;;;5.27;3.90;;;;;;;25.58;54.93;100512.41;5070321;28;20185;-60
2023/06/25 02:36:42;;;;;;;6.00;3.70;;;;;;;25.57;55.20;100517.34;5052347;28;20217;-61
2023/06/25 02:39:08;;;;;;;7.00;4.80;;;;;;;25.58;54.55;100512.41;5067901;28;20449;-61
2023/06/25 02:41:33;;;;;;;5.17;3.90;;;;;;;25.57;54.68;100511.56;5068316;28;20417;-61
2023/06/25 02:43:59;;;;;;;4.80;3.43;;;;;;;25.56;54.50;100515.72;5087311;28;20186;-61
2023/06/25 02:46:24;;;;;;;5.53;3.80;;;;;;;25.56;54.88;100515.72;5085205;28;20205;-61
2023/06/25 02:48:50;;;;;;;5.17;3.53;;;;;;;25.55;55.00;100516.97;5088869;28;20190;-61
2023/06/25 02:51:15;;;;;;;5.77;4.30;;;;;;;25.56;54.60;100515.72;5086904;28;20186;-61
2023/06/25 02:53:41;;;;;;;6.23;4.10;;;;;;;25.54;55.00;100509.50;5063979;28;20203;-61
2023/06/25 02:56:06;;;;;;;4.90;3.50;;;;;;;25.54;55.19;100512.41;5077865;28;20186;-61
2023/06/25 02:58:31;;;;;;;5.50;3.93;;;;;;;25.53;54.60;100507.88;5088404;28;20392;-61
2023/06/25 03:00:57;;;;;;;5.67;3.77;;;;;;;25.54;54.68;100512.41;5086344;28;20253;-61
2023/06/25 03:03:22;;;;;;;6.60;4.37;;;;;;;25.53;55.07;100516.53;5078182;28;20185;-61
2023/06/25 03:05:49;;;;;;;5.47;4.00;;;;;;;25.53;55.20;100504.97;5051047;28;20164;-61
2023/06/25 03:08:14;;;;;;;5.90;4.63;;;;;;;25.53;54.67;100510.75;5051032;28;20202;-61
2023/06/25 03:10:40;;;;;;;5.10;4.17;;;;;;;25.53;54.70;100502.09;5068239;28;20888;-61
2023/06/25 03:13:05;;;;;;;4.90;4.13;;;;;;;25.53;54.84;100509.97;5070812;28;20262;-61
2023/06/25 03:15:31;;;;;;;5.50;4.33;;;;;;;25.53;54.88;100512.84;5051963;28;20175;-61
2023/06/25 03:17:56;;;;;;;5.53;4.43;;;;;;;25.51;54.63;100513.25;5088392;28;20177;-61
2023/06/25 03:20:22;;;;;;;5.70;3.77;;;;;;;25.52;54.88;100516.97;5068340;28;20634;-61
2023/06/25 03:22:47;;;;;;;4.67;3.73;;;;;;;25.50;55.13;100508.72;5075503;28;20194;-61
2023/06/25 03:25:12;;;;;;;5.73;4.20;;;;;;;25.50;55.05;100514.53;5071502;28;20182;-61
2023/06/25 03:27:38;;;;;;;5.10;4.23;;;;;;;25.51;54.58;100516.16;5089343;28;20206;-61
2023/06/25 03:30:04;;;;;;;5.13;4.40;;;;;;;25.50;54.79;100508.72;5089239;28;20295;-61
2023/06/25 03:32:29;;;;;;;4.90;4.20;;;;;;;25.50;54.81;100508.72;5085282;28;20300;-61
2023/06/25 03:34:55;;;;;;;5.67;4.30;;;;;;;25.50;54.59;100513.69;5080568;28;20193;-61
2023/06/25 03:37:21;;;;;;;6.77;4.53;;;;;;;25.49;54.84;100507.06;5069867;28;20580;-61
2023/06/25 03:39:46;;;;;;;5.37;4.07;;;;;;;25.49;54.54;100509.97;5073641;28;20186;-61
2023/06/25 03:42:12;;;;;;;6.60;3.90;;;;;;;25.50;55.06;100505.84;5083740;28;20471;-61
2023/06/25 03:44:44;;;;;;;5.70;4.10;;;;;;;25.48;54.77;100495.94;5072371;28;20179;-61
2023/06/25 03:47:12;;;;;;;5.67;4.20;;;;;;;25.48;54.79;100499.66;5076745;28;21040;-61
2023/06/25 03:49:38;;;;;;;6.33;4.73;;;;;;;25.47;54.60;100498.00;5077897;28;20420;-61
2023/06/25 03:52:03;;;;;;;5.80;4.00;;;;;;;25.47;55.06;100495.13;5067940;28;20942;-61
2023/06/25 03:54:29;;;;;;;7.87;4.30;;;;;;;25.48;55.06;100496.75;5090456;28;20213;-61
2023/06/25 03:56:54;;;;;;;5.30;4.17;;;;;;;25.47;54.94;100495.13;5056479;28;20182;-62
2023/06/25 03:59:20;;;;;;;5.17;3.53;;;;;;;25.46;55.14;100490.59;5068952;28;20230;-61
2023/06/25 04:01:45;;;;;;;4.87;3.80;;;;;;;25.47;55.02;100494.28;5092032;28;20173;-61
2023/06/25 04:04:10;;;;;;;5.73;4.43;;;;;;;25.45;54.88;100491.84;5085551;28;20214;-61
2023/06/25 04:06:36;;;;;;;4.90;3.73;;;;;;;25.46;54.53;100486.84;5072172;28;20201;-61
2023/06/25 04:09:01;;;;;;;5.40;4.20;;;;;;;25.45;54.98;100503.41;5054032;28;20202;-61
2023/06/25 04:11:27;;;;;;;5.07;4.13;;;;;;;25.45;54.81;100503.41;5071689;28;20698;-61
2023/06/25 04:13:52;;;;;;;6.20;4.30;;;;;;;25.44;54.85;100507.50;5074292;28;20253;-61
2023/06/25 04:16:18;;;;;;;5.10;3.83;;;;;;;25.45;55.00;100506.28;5080327;28;20174;-61
2023/06/25 04:18:43;;;;;;;10.83;4.40;;;;;;;25.45;54.64;100505.47;5089132;28;20645;-60
2023/06/25 04:21:08;;;;;;;5.47;4.47;;;;;;;25.44;55.03;100500.94;5071988;28;20263;-61
2023/06/25 04:23:34;;;;;;;6.00;4.27;;;;;;;25.44;54.75;100498.03;5071803;28;20557;-61
2023/06/25 04:25:59;;;;;;;6.50;4.60;;;;;;;25.42;54.42;100498.44;5071969;28;20186;-61
2023/06/25 04:28:25;;;;;;;6.60;4.33;;;;;;;25.43;55.03;100505.88;5074041;28;20211;-61
2023/06/25 04:30:50;;;;;;;5.63;4.43;;;;;;;25.42;54.50;100501.34;5071843;28;20170;-61
2023/06/25 04:33:16;;;;;;;4.77;3.87;;;;;;;25.42;54.65;100504.25;5070222;28;20186;-61
2023/06/25 04:35:41;;;;;;;6.60;3.90;;;;;;;25.42;54.72;100500.50;5078925;28;20189;-61
2023/06/25 04:38:07;;;;;;;4.63;3.80;;;;;;;25.42;54.62;100498.44;5089973;28;20501;-61
2023/06/25 04:40:32;;;;;;;5.63;4.30;;;;;;;25.43;55.00;100502.97;5086406;28;20825;-61
2023/06/25 04:42:58;;;;;;;5.27;3.60;;;;;;;25.45;54.52;100497.63;5089635;28;20182;-61
2023/06/25 04:45:23;;;;;;;7.67;4.63;;;;;;;25.48;54.64;100501.72;5088632;28;20802;-61
2023/06/25 04:47:49;;;;;;;5.00;4.00;;;;;;;25.50;54.75;100505.84;5086329;28;20205;-61
2023/06/25 04:50:14;;;;;;;5.67;4.20;;;;;;;25.51;54.50;100500.88;5090196;28;20178;-61
2023/06/25 04:52:39;;;;;;;5.13;4.20;;;;;;;25.51;54.19;100504.59;5062680;28;20218;-61
2023/06/25 04:55:06;;;;;;;5.93;3.73;;;;;;;25.53;54.50;100504.19;5073259;28;20187;-61
2023/06/25 04:57:31;;;;;;;5.90;4.30;;;;;;;25.52;54.77;100503.34;5086654;28;20290;-61
2023/06/25 04:59:57;;;;;;;6.40;4.60;;;;;;;25.52;54.76;100503.34;5090109;28;20971;-61
2023/06/25 05:02:22;;;;;;;5.43;4.00;;;;;;;25.52;55.06;100500.44;5056341;28;20635;-61
2023/06/25 05:04:47;;;;;;;5.60;4.20;;;;;;;25.52;54.96;100503.34;5071265;28;20162;-61
2023/06/25 05:07:13;;;;;;;5.83;4.47;;;;;;;25.54;54.51;100500.03;5072903;28;20199;-61
2023/06/25 05:09:38;;;;;;;5.40;3.80;;;;;;;25.55;54.98;100504.56;5070817;28;20622;-61
2023/06/25 05:12:04;;;;;;;6.33;4.60;;;;;;;25.55;55.13;100502.50;5070802;28;20175;-61
2023/06/25 05:14:30;;;;;;;7.30;4.50;;;;;;;25.55;54.82;100504.56;5075920;28;20244;-61
2023/06/25 05:16:55;;;;;;;5.43;4.20;;;;;;;25.56;55.11;100504.16;5072467;28;20861;-61
2023/06/25 05:19:21;;;;;;;4.70;3.93;;;;;;;25.58;55.21;100503.72;5090732;28;20683;-61
2023/06/25 05:21:46;;;;;;;5.57;4.10;;;;;;;25.59;54.49;100506.16;5088203;28;20200;-61
2023/06/25 05:24:11;;;;;;;6.97;4.83;;;;;;;25.60;54.18;100504.94;5071966;28;20191;-61
2023/06/25 05:26:37;;;;;;;5.30;4.13;;;;;;;25.62;54.21;100514.00;5070313;28;20549;-61
2023/06/25 05:29:02;;;;;;;6.20;4.87;;;;;;;25.63;54.83;100509.03;5072327;28;20222;-61
2023/06/25 05:31:28;;;;;;;5.20;4.37;;;;;;;25.61;54.98;100502.84;5069303;28;20194;-60
2023/06/25 05:33:54;;;;;;;4.87;3.90;;;;;;;25.59;55.23;100503.28;5071657;28;20190;-61
2023/06/25 05:36:19;;;;;;;6.10;4.20;;;;;;;25.57;55.21;100502.06;5084626;28;20197;-61
2023/06/25 05:38:44;;;;;;;5.43;4.30;;;;;;;25.55;55.46;100508.28;5068973;28;20175;-61
2023/06/25 05:41:10;;;;;;;5.83;4.80;;;;;;;25.53;55.10;100504.97;5071394;28;20646;-61
2023/06/25 05:43:35;;;;;;;7.70;4.53;;;;;;;25.53;55.49;100504.97;5051119;28;20178;-61
2023/06/25 05:46:01;;;;;;;6.10;4.80;;;;;;;25.53;55.25;100501.28;5075136;28;20669;-61
2023/06/25 05:48:26;;;;;;;5.90;4.40;;;;;;;25.54;55.57;100506.63;5089992;28;20526;-61
2023/06/25 05:50:52;;;;;;;6.93;4.77;;;;;;;25.53;55.77;100501.28;5054924;28;20635;-61
2023/06/25 05:53:18;;;;;;;6.60;4.40;;;;;;;25.54;55.40;100512.41;5052397;28;20174;-61
2023/06/25 05:55:43;;;;;;;6.37;4.50;;;;;;;25.54;55.75;100506.63;5058809;28;20556;-61
2023/06/25 05:58:09;;;;;;;6.50;4.50;;;;;;;25.54;55.83;100505.81;5075070;28;20429;-61
2023/06/25 06:00:34;;;;;;;6.17;4.50;;;;;;;25.54;55.75;100508.72;5070608;28;20225;-61
2023/06/25 06:03:00;;;;;;;7.17;5.37;;;;;;;25.56;55.78;100503.31;5089611;28;20555;-60
2023/06/25 06:05:25;;;;;;;6.10;4.80;;;;;;;25.57;55.54;100505.78;5090089;28;20687;-61
2023/06/25 06:07:50;;;;;;;10.90;5.50;;;;;;;25.60;55.88;100507.00;5071625;28;20214;-61
2023/06/25 06:10:16;;;;;;;8.80;4.50;;;;;;;25.61;55.47;100509.47;5066675;28;20239;-61
2023/06/25 06:12:41;;;;;;;9.17;5.03;;;;;;;25.65;54.75;100498.69;5051779;28;20248;-61
2023/06/25 06:15:07;;;;;;;5.63;4.70;;;;;;;25.66;55.01;100505.31;5069132;28;20254;-61
2023/06/25 06:17:33;;;;;;;6.40;4.80;;;;;;;25.65;55.09;100489.19;5073289;28;20776;-61
2023/06/25 06:19:58;;;;;;;6.60;4.97;;;;;;;25.64;54.89;100494.16;5051845;28;20175;-61
2023/06/25 06:22:23;;;;;;;6.10;4.83;;;;;;;25.60;55.50;100502.06;5076706;28;20532;-61
2023/06/25 06:24:49;;;;;;;6.53;4.93;;;;;;;25.58;54.99;100510.31;5071331;28;20174;-61
2023/06/25 06:27:14;;;;;;;5.47;4.60;;;;;;;25.55;54.50;100508.28;5087505;28;20182;-61
2023/06/25 06:29:40;;;;;;;6.23;5.00;;;;;;;25.55;54.93;100508.28;5086096;28;20923;-61
2023/06/25 06:32:09;;;;;;;5.30;4.30;;;;;;;25.53;55.29;100502.09;5071073;28;20182;-61
2023/06/25 06:34:35;;;;;;;6.83;4.97;;;;;;;25.52;55.47;100503.34;5069806;28;20182;-61
2023/06/25 06:37:01;;;;;;;6.20;4.40;;;;;;;25.52;55.67;100502.50;5067087;28;20974;-61
2023/06/25 06:39:26;;;;;;;5.10;3.60;;;;;;;25.51;56.02;100507.47;5071639;28;20175;-61
2023/06/25 06:41:52;;;;;;;5.57;4.80;;;;;;;25.51;55.51;100501.69;5087326;28;20174;-61
2023/06/25 06:44:17;;;;;;;6.40;5.10;;;;;;;25.51;55.52;100519.06;5088570;28;20221;-61
2023/06/25 06:46:43;;;;;;;7.00;5.33;;;;;;;25.50;55.45;100511.63;5086347;28;20584;-60
2023/06/25 06:49:09;;;;;;;6.73;4.30;;;;;;;25.51;55.70;100507.47;5089054;28;20267;-61
2023/06/25 06:51:35;;;;;;;5.87;4.50;;;;;;;25.52;56.11;100517.81;5068194;28;20239;-61
2023/06/25 06:54:00;;;;;;;6.27;4.60;;;;;;;25.54;55.82;100512.41;5089139;28;20257;-61
2023/06/25 06:56:25;;;;;;;6.27;4.20;;;;;;;25.54;55.45;100506.63;5090625;28;20204;-61
2023/06/25 06:58:51;;;;;;;7.13;5.17;;;;;;;25.55;55.64;100510.34;5085181;28;20186;-60
2023/06/25 07:01:16;;;;;;;5.77;4.33;;;;;;;25.55;55.30;100510.34;5092472;28;20888;-61
2023/06/25 07:03:42;;;;;;;6.57;5.10;;;;;;;25.54;55.65;100512.41;5078266;28;20186;-61
2023/06/25 07:06:08;;;;;;;5.70;4.60;;;;;;;25.54;55.56;100509.50;5079940;28;20194;-60
2023/06/25 07:08:33;;;;;;;6.00;4.30;;;;;;;25.53;55.85;100496.31;5088589;28;20217;-60
2023/06/25 07:10:58;;;;;;;6.57;4.77;;;;;;;25.53;55.21;100493.41;5070605;28;20208;-60
2023/06/25 07:13:24;;;;;;;6.10;4.23;;;;;;;25.50;55.40;100491.38;5074139;28;20994;-61
2023/06/25 07:15:50;;;;;;;7.63;4.80;;;;;;;25.48;55.12;100502.53;5078769;28;20194;-61
2023/06/25 07:18:15;;;;;;;5.40;4.60;;;;;;;25.49;55.67;100498.38;5091916;28;20460;-61
2023/06/25 07:20:41;;;;;;;6.17;4.87;;;;;;;25.49;55.45;100503.38;5079655;28;20194;-61
2023/06/25 07:23:06;;;;;;;6.97;4.73;;;;;;;25.49;55.44;100498.38;5074505;28;20209;-61
2023/06/25 07:25:32;;;;;;;6.07;4.67;;;;;;;25.48;55.69;100493.88;5076770;28;20623;-61
2023/06/25 07:27:57;;;;;;;7.20;4.77;;;;;;;25.49;55.64;100503.38;5071311;28;20203;-61
2023/06/25 07:30:22;;;;;;;9.60;4.70;;;;;;;25.49;55.82;100491.81;5068209;28;20217;-61
2023/06/25 07:32:48;;;;;;;6.63;5.20;;;;;;;25.47;55.69;100498.00;5073875;28;20198;-61
2023/06/25 07:35:13;;;;;;;7.70;5.40;;;;;;;25.48;55.92;100507.50;5074070;28;20183;-61
2023/06/25 07:37:40;;;;;;;6.90;5.07;;;;;;;25.47;55.87;100500.91;5071561;28;20155;-61
2023/06/25 07:40:06;;;;;;;6.57;5.10;;;;;;;25.48;55.77;100498.84;5072273;28;20176;-61
2023/06/25 07:42:31;;;;;;;8.13;5.40;;;;;;;25.47;55.71;100492.22;5071071;28;20443;-61
2023/06/25 07:44:57;;;;;;;6.63;4.73;;;;;;;25.47;55.92;100491.38;5073187;28;20436;-61
2023/06/25 07:47:22;;;;;;;7.67;5.33;;;;;;;25.47;55.87;100494.28;5088112;28;20190;-61
2023/06/25 07:49:48;;;;;;;14.00;5.23;;;;;;;25.47;55.53;100495.13;5091474;28;20197;-61
2023/06/25 07:52:13;;;;;;;8.30;5.73;;;;;;;25.46;55.66;100499.25;5088208;28;20182;-61
2023/06/25 07:54:39;;;;;;;6.77;4.87;;;;;;;25.45;55.58;100497.63;5091386;28;20158;-61
2023/06/25 07:57:05;;;;;;;5.93;4.63;;;;;;;25.46;55.56;100492.63;5091365;28;20159;-61
2023/06/25 07:59:30;;;;;;;6.63;5.10;;;;;;;25.46;55.47;100499.25;5088626;28;20551;-61
2023/06/25 08:01:56;;;;;;;9.63;4.80;;;;;;;25.45;55.34;100494.72;5087926;28;20190;-61
2023/06/25 08:04:22;;;;;;;7.17;4.97;;;;;;;25.45;55.47;100486.06;5091908;28;20191;-61
2023/06/25 08:06:48;;;;;;;5.50;4.90;;;;;;;25.46;55.64;100486.84;5089185;28;20512;-61
2023/06/25 08:09:14;;;;;;;6.30;4.30;;;;;;;25.45;55.68;100486.06;5073829;28;20207;-61
2023/06/25 08:11:39;;;;;;;7.10;5.50;;;;;;;25.44;55.41;100484.38;5071337;28;20187;-61
2023/06/25 08:14:05;;;;;;;9.10;5.57;;;;;;;25.45;55.27;100486.06;5073393;28;20482;-61
2023/06/25 08:16:30;;;;;;;5.87;4.70;;;;;;;25.46;55.11;100484.81;5081750;28;20213;-61
2023/06/25 08:18:56;;;;;;;6.20;4.77;;;;;;;25.45;55.67;100474.50;5087281;28;20598;-61
2023/06/25 08:21:21;;;;;;;5.30;4.73;;;;;;;25.45;55.01;100483.16;5071478;28;20554;-61
2023/06/25 08:23:47;;;;;;;5.47;4.23;;;;;;;25.46;55.10;100484.81;5071213;28;20630;-61
2023/06/25 08:26:15;;;;;;;5.47;4.37;;;;;;;25.45;55.12;100473.66;5070973;28;20171;-61
2023/06/25 08:28:41;;;;;;;6.60;5.13;;;;;;;25.45;55.60;100474.50;5072165;28;20229;-61
2023/06/25 08:31:06;;;;;;;6.20;5.30;;;;;;;25.45;55.50;100480.28;5072685;28;20448;-61
2023/06/25 08:33:33;;;;;;;6.30;4.87;;;;;;;25.45;55.49;100479.44;5084866;28;20182;-61
2023/06/25 08:35:58;;;;;;;6.50;4.80;;;;;;;25.47;55.40;100476.94;5090661;28;20161;-61
2023/06/25 08:38:27;;;;;;;7.30;5.67;;;;;;;25.46;55.19;100470.34;5087934;28;21090;-61
2023/06/25 08:40:52;;;;;;;7.40;4.70;;;;;;;25.46;54.79;100472.41;5071900;28;20206;-61
2023/06/25 08:43:18;;;;;;;7.50;5.77;;;;;;;25.47;54.17;100465.38;5088910;28;21135;-61
2023/06/25 08:45:43;;;;;;;7.33;5.20;;;;;;;25.46;54.29;100461.66;5087696;28;20676;-61
2023/06/25 08:48:15;;;;;;;6.63;4.23;;;;;;;25.47;54.52;100459.59;5086864;28;20273;-61
2023/06/25 08:50:41;;;;;;;5.73;4.60;;;;;;;25.48;54.09;100464.16;5081476;28;20195;-61
2023/06/25 08:53:07;;;;;;;7.33;5.27;;;;;;;25.48;53.95;100467.84;5070193;28;20925;-61
2023/06/25 08:55:34;;;;;;;6.93;5.10;;;;;;;25.49;53.68;100462.91;5064562;28;20439;-61
2023/06/25 08:57:59;;;;;;;5.57;4.83;;;;;;;25.48;53.83;100453.38;5063598;28;20433;-61
2023/06/25 09:00:24;;;;;;;6.10;4.63;;;;;;;25.48;53.51;100456.28;5070403;28;20823;-61
2023/06/25 09:02:50;;;;;;;7.50;5.40;;;;;;;25.48;54.06;100452.59;5074559;28;20171;-61
2023/06/25 09:05:25;;;;;;;7.70;5.10;;;;;;;25.49;53.60;100446.34;5071061;28;20184;-61
2023/06/25 09:07:51;;;;;;;7.70;4.70;;;;;;;25.49;53.27;100436.88;5070500;28;20736;-61
2023/06/25 09:10:18;;;;;;;6.97;5.00;;;;;;;25.50;53.60;100444.28;5070285;28;20432;-61
2023/06/25 09:12:50;;;;;;;6.67;4.83;;;;;;;25.49;53.65;100439.75;5068522;28;20191;-61
2023/06/25 09:15:22;;;;;;;6.30;4.93;;;;;;;25.48;53.90;100430.25;5068671;28;20406;-61
2023/06/25 09:17:48;;;;;;;6.30;5.40;;;;;;;25.48;53.78;100427.38;5066892;28;20421;-60
2023/06/25 09:20:13;;;;;;;6.00;5.27;;;;;;;25.49;53.68;100431.88;5078711;28;20438;-61
2023/06/25 09:22:56;;;;;;;6.60;4.70;;;;;;;25.48;54.31;100427.38;5076151;28;20186;-61
2023/06/25 09:25:28;;;;;;;8.20;4.47;;;;;;;25.48;54.17;100426.56;5050947;28;20185;-61
2023/06/25 09:27:53;;;;;;;7.63;5.53;;;;;;;25.48;54.04;100421.56;5065580;28;20464;-61
2023/06/25 09:30:22;;;;;;;6.60;5.13;;;;;;;25.50;54.01;100424.06;5065900;28;20769;-61
2023/06/25 09:32:54;;;;;;;7.90;4.93;;;;;;;25.49;53.72;100429.00;5069647;28;20223;-61
2023/06/25 09:35:22;;;;;;;7.53;5.20;;;;;;;25.49;53.66;100417.44;5069071;28;20405;-61
2023/06/25 09:37:51;;;;;;;8.07;5.40;;;;;;;25.49;53.96;100408.75;5079706;28;20786;-61
2023/06/25 09:40:17;;;;;;;6.67;5.53;;;;;;;25.48;53.70;100418.69;5085933;28;20485;-61
2023/06/25 09:42:44;;;;;;;6.90;4.80;;;;;;;25.50;53.75;100412.50;5079716;28;21212;-61
2023/06/25 09:45:10;;;;;;;6.83;5.30;;;;;;;25.49;53.94;100408.75;5080331;28;20441;-61
2023/06/25 09:47:36;;;;;;;7.57;5.20;;;;;;;25.49;53.43;100414.53;5062311;28;20432;-61
2023/06/25 09:50:03;;;;;;;5.93;4.93;;;;;;;25.49;53.48;100411.66;5067515;28;20205;-61
2023/06/25 09:52:28;;;;;;;6.80;5.30;;;;;;;25.50;53.43;100407.53;5053156;28;20426;-61
2023/06/25 09:54:54;;;;;;;5.43;4.30;;;;;;;25.51;53.16;100397.59;5064675;28;20429;-60
2023/06/25 09:57:19;;;;;;;7.03;5.03;;;;;;;25.52;52.98;100396.34;5073045;28;20187;-60
2023/06/25 09:59:45;;;;;;;6.00;5.03;;;;;;;25.51;53.21;100391.81;5050567;28;20227;-60
2023/06/25 10:02:11;;;;;;;6.30;4.80;;;;;;;25.52;53.38;100387.69;5053086;28;20183;-60
2023/06/25 10:04:37;;;;;;;6.80;5.00;;;;;;;25.51;53.22;100397.59;5035144;28;20927;-60
2023/06/25 10:07:02;;;;;;;6.13;5.47;;;;;;;25.51;53.48;100391.81;5072252;28;20210;-60
2023/06/25 10:09:28;;;;;;;7.77;4.97;;;;;;;25.52;53.03;100381.06;5069205;28;20595;-60
2023/06/25 10:11:55;;;;;;;8.40;5.83;;;;;;;25.54;53.10;100387.25;5068799;28;20183;-60
2023/06/25 10:14:21;;;;;;;5.60;4.70;;;;;;;25.53;52.74;100383.53;5049880;28;20186;-60
2023/06/25 10:16:53;;;;;;;8.30;4.43;;;;;;;25.55;52.64;100389.72;5067904;28;20510;-60
2023/06/25 10:19:26;;;;;;;7.63;5.13;;;;;;;25.56;52.77;100381.84;5077443;28;20643;-60
2023/06/25 10:22:04;;;;;;;6.70;4.93;;;;;;;25.54;52.79;100382.28;5068254;28;20425;-60
2023/06/25 10:24:43;;;;;;;5.67;4.80;;;;;;;25.53;52.53;100379.84;5068646;28;20428;-60
2023/06/25 10:27:23;;;;;;;7.10;4.80;;;;;;;25.54;52.56;100381.47;5063551;28;20443;-60
2023/06/25 10:29:49;;;;;;;5.50;4.17;;;;;;;25.53;52.79;100371.97;5078511;28;20429;-60
2023/06/25 10:32:18;;;;;;;6.40;5.20;;;;;;;25.53;52.63;100356.72;5069292;28;20436;-60
2023/06/25 10:34:43;;;;;;;7.23;5.13;;;;;;;25.53;53.04;100365.38;5072753;28;20190;-60
2023/06/25 10:37:12;;;;;;;8.63;4.63;;;;;;;25.55;52.75;100357.09;5081883;28;20452;-60
2023/06/25 10:39:38;;;;;;;6.70;5.37;;;;;;;25.55;52.34;100352.16;5070646;28;20546;-60
2023/06/25 10:42:04;;;;;;;11.30;4.80;;;;;;;25.57;52.32;100354.59;5068966;28;20424;-60
2023/06/25 10:44:31;;;;;;;8.20;4.97;;;;;;;25.56;52.12;100348.00;5078670;28;20858;-60
2023/06/25 10:47:07;;;;;;;5.90;4.77;;;;;;;25.56;51.98;100348.00;5073671;28;20514;-60
2023/06/25 10:49:33;;;;;;;5.87;5.10;;;;;;;25.55;52.27;100346.34;5071197;28;20521;-60
2023/06/25 10:51:59;;;;;;;11.10;6.10;;;;;;;25.56;51.83;100341.38;5058294;28;20453;-60
2023/06/25 10:54:24;;;;;;;7.17;4.77;;;;;;;25.57;51.68;100343.84;5074631;28;20468;-60
2023/06/25 10:56:53;;;;;;;6.40;5.07;;;;;;;25.59;51.33;100341.34;5050038;28;20190;-60
2023/06/25 10:59:22;;;;;;;8.37;5.50;;;;;;;25.57;51.50;100335.19;5081059;28;20313;-60
2023/06/25 11:01:49;;;;;;;6.40;5.10;;;;;;;25.59;51.13;100346.31;5081287;28;20973;-60
2023/06/25 11:04:15;;;;;;;6.50;4.70;;;;;;;25.57;51.53;100338.06;5077172;28;20438;-60
2023/06/25 11:06:40;;;;;;;6.63;5.30;;;;;;;25.58;51.49;100331.03;5069681;28;20543;-60
2023/06/25 11:09:05;;;;;;;6.20;4.97;;;;;;;25.60;50.82;100325.66;5070618;28;20225;-60
2023/06/25 11:11:31;;;;;;;5.30;4.70;;;;;;;25.58;51.00;100321.53;5032276;28;20202;-61
2023/06/25 11:13:56;;;;;;;5.63;4.53;;;;;;;25.58;50.89;100316.56;5081405;28;20186;-61
2023/06/25 11:16:22;;;;;;;8.53;5.40;;;;;;;25.56;51.26;100310.41;5077483;28;20186;-61
2023/06/25 11:18:50;;;;;;;5.97;5.20;;;;;;;25.58;51.21;100310.78;5049449;28;20182;-61